createdAt,value
2018-12-13T00:02:42.228Z,4.77
2018-12-13T00:07:28.733Z,4.37
2018-12-13T00:12:14.819Z,4.23
2018-12-13T00:17:01.023Z,4.25
2018-12-13T00:21:46.200Z,3.39
2018-12-13T00:26:32.615Z,3.95
2018-12-13T00:31:17.864Z,3.11
2018-12-13T00:36:02.288Z,3.11
2018-12-13T00:40:47.941Z,3.56
2018-12-13T00:45:33.177Z,3.88
2018-12-13T00:50:21.209Z,3.63
2018-12-13T00:55:05.631Z,3.44
2018-12-13T00:59:50.894Z,3.64
2018-12-13T01:04:35.048Z,2.82
2018-12-13T01:09:23.441Z,2.20
2018-12-13T01:14:08.661Z,2.32
2018-12-13T01:18:54.554Z,2.03
2018-12-13T01:23:40.442Z,1.72
2018-12-13T01:28:25.852Z,1.95
2018-12-13T01:33:11.137Z,2.63
2018-12-13T01:37:57.863Z,2.71
2018-12-13T01:42:46.529Z,2.46
2018-12-13T01:47:31.132Z,2.59
2018-12-13T01:52:15.529Z,1.89
2018-12-13T01:57:00.791Z,1.97
2018-12-13T02:01:46.022Z,2.29
2018-12-13T02:06:32.392Z,1.81
2018-12-13T02:11:20.549Z,1.99
2018-12-13T02:16:05.876Z,1.88
2018-12-13T02:20:50.961Z,2.59
2018-12-13T02:25:36.184Z,1.87
2018-12-13T02:30:21.530Z,2.29
2018-12-13T02:35:06.865Z,1.66
2018-12-13T02:39:52.249Z,1.57
2018-12-13T02:44:36.537Z,1.59
2018-12-13T02:49:24.423Z,1.59
2018-12-13T02:54:09.649Z,1.18
2018-12-13T02:58:55.068Z,1.31
2018-12-13T03:03:40.273Z,1.42
2018-12-13T03:08:24.708Z,1.87
2018-12-13T03:13:09.837Z,2.12
2018-12-13T03:17:55.269Z,1.98
2018-12-13T03:22:39.461Z,2.12
2018-12-13T03:27:25.741Z,2.10
2018-12-13T03:32:10.943Z,2.01
2018-12-13T03:36:57.657Z,1.84
2018-12-13T03:41:41.994Z,1.58
2018-12-13T03:46:28.299Z,1.63
2018-12-13T03:51:13.422Z,1.55
2018-12-13T03:56:03.841Z,1.23
2018-12-13T04:00:49.003Z,1.17
2018-12-13T04:05:34.455Z,1.11
2018-12-13T04:10:18.762Z,0.99
2018-12-13T04:15:04.254Z,1.43
2018-12-13T04:19:49.439Z,1.98
2018-12-13T04:24:34.487Z,2.18
2018-12-13T04:29:18.793Z,2.17
2018-12-13T04:34:03.898Z,1.81
2018-12-13T04:38:52.136Z,1.66
2018-12-13T04:43:37.400Z,1.78
2018-12-13T04:48:22.926Z,1.96
2018-12-13T04:53:08.921Z,1.67
2018-12-13T04:57:54.453Z,2.08
2018-12-13T05:02:38.742Z,1.79
2018-12-13T05:07:24.114Z,1.97
2018-12-13T05:12:09.326Z,2.07
2018-12-13T05:16:54.697Z,2.00
2018-12-13T05:21:38.887Z,1.99
2018-12-13T05:26:24.342Z,2.27
2018-12-13T05:31:09.576Z,2.16
2018-12-13T05:35:53.910Z,2.29
2018-12-13T05:40:39.340Z,2.38
2018-12-13T05:45:24.485Z,2.54
2018-12-13T05:50:09.693Z,2.28
2018-12-13T05:54:54.926Z,2.22
2018-12-13T05:59:40.060Z,2.36
2018-12-13T06:04:25.355Z,2.34
2018-12-13T06:09:09.452Z,2.48
2018-12-13T06:13:54.627Z,2.53
2018-12-13T06:18:39.909Z,2.64
2018-12-13T06:23:25.748Z,2.78
2018-12-13T06:28:11.259Z,2.92
2018-12-13T06:32:56.588Z,3.12
2018-12-13T06:37:41.860Z,3.01
2018-12-13T06:42:26.067Z,2.95
2018-12-13T06:47:11.055Z,3.20
2018-12-13T06:51:56.911Z,3.43
2018-12-13T06:56:41.148Z,3.46
2018-12-13T07:01:25.346Z,3.43
2018-12-13T07:06:09.727Z,3.21
2018-12-13T07:10:54.894Z,3.22
2018-12-13T07:15:40.126Z,3.45
2018-12-13T07:20:26.264Z,3.58
2018-12-13T07:25:15.072Z,3.53
2018-12-13T07:30:00.217Z,3.71
2018-12-13T07:34:45.447Z,3.78
2018-12-13T07:39:30.916Z,4.26
2018-12-13T07:44:16.096Z,4.17
2018-12-13T07:49:01.567Z,4.14
2018-12-13T07:53:45.909Z,4.31
2018-12-13T07:58:31.106Z,4.15
2018-12-13T08:03:16.283Z,4.21
2018-12-13T08:08:01.670Z,4.39
2018-12-13T08:12:47.235Z,4.35
2018-12-13T08:17:33.146Z,4.56
2018-12-13T08:22:18.070Z,4.42
2018-12-13T08:27:03.214Z,4.49
2018-12-13T08:31:48.346Z,4.86
2018-12-13T08:36:33.661Z,5.03
2018-12-13T08:41:18.788Z,5.15
2018-12-13T08:46:04.030Z,4.89
2018-12-13T08:50:48.287Z,5.30
2018-12-13T08:55:56.034Z,5.55
2018-12-13T09:00:41.173Z,5.32
2018-12-13T09:05:26.347Z,5.57
2018-12-13T09:10:10.690Z,5.31
2018-12-13T09:14:56.277Z,5.79
2018-12-13T09:19:41.454Z,5.82
2018-12-13T09:24:25.662Z,5.96
2018-12-13T09:29:10.927Z,6.31
2018-12-13T09:33:55.353Z,6.39
2018-12-13T09:38:40.077Z,6.76
2018-12-13T09:43:25.580Z,7.03
2018-12-13T09:48:11.139Z,7.10
2018-12-13T09:52:56.464Z,7.04
2018-12-13T09:57:41.028Z,6.78
2018-12-13T10:02:26.317Z,6.61
2018-12-13T10:07:11.533Z,7.48
2018-12-13T10:11:56.836Z,8.29
2018-12-13T10:16:42.228Z,8.01
2018-12-13T10:21:27.413Z,7.86
2018-12-13T10:26:11.769Z,7.59
2018-12-13T10:30:56.138Z,7.17
2018-12-13T10:35:41.523Z,7.50
2018-12-13T10:40:26.741Z,7.81
2018-12-13T10:45:11.947Z,8.13
2018-12-13T10:49:57.155Z,8.01
2018-12-13T10:54:42.933Z,8.27
2018-12-13T10:59:28.066Z,7.78
2018-12-13T11:04:12.652Z,8.15
2018-12-13T11:08:59.600Z,8.50
2018-12-13T11:13:45.170Z,8.35
2018-12-13T11:18:30.347Z,7.79
2018-12-13T11:23:15.568Z,7.82
2018-12-13T11:28:15.903Z,7.96
2018-12-13T11:33:06.463Z,8.74
2018-12-13T11:37:50.918Z,8.53
2018-12-13T11:42:35.221Z,8.92
2018-12-13T11:47:19.981Z,8.43
2018-12-13T11:52:05.464Z,8.65
2018-12-13T11:56:50.038Z,8.59
2018-12-13T12:01:34.261Z,8.62
2018-12-13T12:06:22.846Z,8.81
2018-12-13T12:11:08.013Z,8.78
2018-12-13T12:15:52.487Z,8.50
2018-12-13T12:20:37.733Z,8.26
2018-12-13T12:25:23.025Z,8.31
2018-12-13T12:30:08.269Z,8.70
2018-12-13T12:34:53.965Z,8.08
2018-12-13T12:39:38.287Z,8.06
2018-12-13T12:44:25.776Z,7.92
2018-12-13T12:49:10.953Z,8.03
2018-12-13T12:53:56.250Z,7.86
2018-12-13T12:58:42.483Z,7.60
2018-12-13T13:03:27.703Z,7.69
2018-12-13T13:08:12.893Z,7.61
2018-12-13T13:12:57.054Z,7.37
2018-12-13T13:17:42.330Z,7.28
2018-12-13T13:22:27.594Z,7.26
2018-12-13T13:27:12.868Z,7.30
2018-12-13T13:31:57.010Z,7.18
2018-12-13T13:36:42.403Z,7.32
2018-12-13T13:41:27.621Z,7.11
2018-12-13T13:46:12.787Z,7.88
2018-12-13T13:50:57.662Z,7.69
2018-12-13T13:55:43.043Z,7.35
2018-12-13T14:00:27.312Z,7.13
2018-12-13T14:05:11.685Z,6.95
2018-12-13T14:09:56.776Z,7.18
2018-12-13T14:14:42.156Z,7.14
2018-12-13T14:19:27.502Z,6.49
2018-12-13T14:24:11.904Z,6.25
2018-12-13T14:28:57.205Z,6.33
2018-12-13T14:33:42.293Z,6.51
2018-12-13T14:38:26.737Z,7.30
2018-12-13T14:43:11.938Z,7.29
2018-12-13T14:47:56.378Z,6.53
2018-12-13T14:52:41.528Z,5.93
2018-12-13T14:57:26.751Z,5.50
2018-12-13T15:02:12.378Z,5.76
2018-12-13T15:06:58.722Z,5.80
2018-12-13T15:11:43.865Z,5.84
2018-12-13T15:16:29.425Z,6.02
2018-12-13T15:21:14.637Z,5.97
2018-12-13T15:25:59.893Z,5.48
2018-12-13T15:30:43.963Z,5.10
2018-12-13T15:35:30.411Z,4.86
2018-12-13T15:40:15.661Z,4.50
2018-12-13T15:45:00.964Z,5.52
2018-12-13T15:49:46.360Z,5.92
2018-12-13T15:54:32.951Z,5.50
2018-12-13T15:59:18.257Z,5.63
2018-12-13T16:04:03.740Z,5.48
2018-12-13T16:08:49.014Z,5.59
2018-12-13T16:13:34.253Z,5.57
2018-12-13T16:18:18.558Z,5.46
2018-12-13T16:23:03.839Z,5.35
2018-12-13T16:27:49.150Z,5.39
2018-12-13T16:32:33.277Z,5.31
2018-12-13T16:37:17.764Z,5.35
2018-12-13T16:42:02.997Z,5.56
2018-12-13T16:46:48.386Z,5.63
2018-12-13T16:51:32.601Z,4.96
2018-12-13T16:56:17.888Z,5.30
2018-12-13T17:01:08.690Z,4.90
2018-12-13T17:05:53.798Z,4.19
2018-12-13T17:10:39.813Z,4.42
2018-12-13T17:15:25.105Z,4.22
2018-12-13T17:20:10.313Z,3.94
2018-12-13T17:24:54.702Z,3.79
2018-12-13T17:29:40.584Z,3.65
2018-12-13T17:34:26.796Z,3.57
2018-12-13T17:39:12.085Z,4.09
2018-12-13T17:43:57.653Z,4.02
2018-12-13T17:48:43.125Z,3.88
2018-12-13T17:53:29.447Z,4.10
2018-12-13T17:58:14.643Z,4.24
2018-12-13T18:02:59.934Z,4.33
2018-12-13T18:07:45.502Z,4.24
2018-12-13T18:12:29.781Z,4.23
2018-12-13T18:17:18.405Z,4.26
2018-12-13T18:22:04.718Z,4.16
2018-12-13T18:26:52.901Z,4.22
2018-12-13T18:31:38.120Z,4.15
2018-12-13T18:36:25.645Z,4.24
2018-12-13T18:41:11.872Z,3.52
2018-12-13T18:45:59.965Z,3.88
2018-12-13T18:50:45.602Z,3.95
2018-12-13T18:55:31.975Z,3.95
2018-12-13T19:00:16.790Z,3.91
2018-12-13T19:05:01.074Z,3.07
2018-12-13T19:09:46.425Z,3.51
2018-12-13T19:14:32.601Z,3.66
2018-12-13T19:19:17.068Z,3.80
2018-12-13T19:24:04.228Z,3.88
2018-12-13T19:28:49.570Z,3.80
2018-12-13T19:33:34.702Z,3.71
2018-12-13T19:38:20.472Z,3.86
2018-12-13T19:43:06.790Z,3.75
2018-12-13T19:47:54.255Z,3.87
2018-12-13T19:52:39.487Z,3.71
2018-12-13T19:57:24.743Z,3.83
2018-12-13T20:02:10.463Z,3.69
2018-12-13T20:06:58.896Z,3.69
2018-12-13T20:11:43.090Z,3.67
2018-12-13T20:16:28.218Z,3.73
2018-12-13T20:21:13.408Z,3.82
2018-12-13T20:25:57.790Z,3.45
2018-12-13T20:30:42.954Z,2.87
2018-12-13T20:35:31.158Z,3.49
2018-12-13T20:40:16.373Z,3.35
2018-12-13T20:45:01.697Z,3.38
2018-12-13T20:49:47.453Z,3.44
2018-12-13T20:54:34.698Z,3.52
2018-12-13T20:59:19.648Z,3.16
2018-12-13T21:04:06.117Z,2.85
2018-12-13T21:08:50.313Z,3.31
2018-12-13T21:13:34.452Z,3.10
2018-12-13T21:18:22.336Z,3.25
2018-12-13T21:23:06.564Z,3.56
2018-12-13T21:27:52.861Z,3.57
2018-12-13T21:32:37.993Z,3.67
2018-12-13T21:37:22.368Z,3.66
2018-12-13T21:42:07.869Z,3.65
2018-12-13T21:46:53.833Z,3.59
2018-12-13T21:51:38.076Z,3.42
2018-12-13T21:56:23.653Z,3.47
2018-12-13T22:01:08.868Z,3.42
2018-12-13T22:05:54.247Z,3.35
2018-12-13T22:10:39.452Z,2.60
2018-12-13T22:15:28.733Z,3.05
2018-12-13T22:20:13.920Z,3.09
2018-12-13T22:24:58.243Z,3.28
2018-12-13T22:29:43.329Z,3.18
2018-12-13T22:34:32.281Z,3.10
2018-12-13T22:39:17.506Z,2.82
2018-12-13T22:44:02.621Z,3.08
2018-12-13T22:48:48.189Z,3.17
2018-12-13T22:53:34.382Z,3.33
2018-12-13T22:58:19.842Z,3.08
2018-12-13T23:03:05.230Z,3.13
2018-12-13T23:07:49.548Z,3.15
2018-12-13T23:12:34.637Z,2.94
2018-12-13T23:17:20.491Z,3.02
2018-12-13T23:22:05.696Z,2.73
2018-12-13T23:26:51.149Z,2.42
2018-12-13T23:31:36.249Z,2.67
2018-12-13T23:36:21.522Z,3.00
2018-12-13T23:41:05.800Z,2.92
2018-12-13T23:45:51.115Z,2.84
2018-12-13T23:50:36.332Z,3.08
2018-12-13T23:55:21.736Z,2.34
